sensor_id;sensor_type;location;lat;lon;timestamp;P1;durP1;ratioP1;P2;durP2;ratioP2
57249;SDS011;43102;52.014;-0.680;2023-07-16T00:00:00;5.80;;;2.50;;
57249;SDS011;43102;52.014;-0.680;2023-07-16T00:01:01;6.90;;;3.20;;
57249;SDS011;43102;52.014;-0.680;2023-07-16T00:02:00;6.90;;;3.20;;
57249;SDS011;43102;52.014;-0.680;2023-07-16T00:03:01;6.90;;;3.20;;
57249;SDS011;43102;52.014;-0.680;2023-07-16T00:04:01;6.90;;;3.20;;
57249;SDS011;43102;52.014;-0.680;2023-07-16T00:05:00;6.90;;;3.20;;
57249;SDS011;43102;52.014;-0.680;2023-07-16T00:06:00;6.90;;;3.20;;
57249;SDS011;43102;52.014;-0.680;2023-07-16T00:07:02;6.90;;;3.20;;
57249;SDS011;43102;52.014;-0.680;2023-07-16T00:08:00;6.90;;;3.20;;
57249;SDS011;43102;52.014;-0.680;2023-07-16T00:09:00;6.90;;;3.20;;
57249;SDS011;43102;52.014;-0.680;2023-07-16T00:10:00;6.90;;;3.20;;
57249;SDS011;43102;52.014;-0.680;2023-07-16T00:11:00;6.90;;;3.20;;
57249;SDS011;43102;52.014;-0.680;2023-07-16T00:12:01;6.90;;;3.20;;
57249;SDS011;43102;52.014;-0.680;2023-07-16T00:13:00;6.90;;;3.20;;
57249;SDS011;43102;52.014;-0.680;2023-07-16T00:14:01;6.90;;;3.20;;
57249;SDS011;43102;52.014;-0.680;2023-07-16T00:15:00;6.90;;;3.20;;
57249;SDS011;43102;52.014;-0.680;2023-07-16T00:16:00;6.90;;;3.20;;
57249;SDS011;43102;52.014;-0.680;2023-07-16T00:17:00;6.90;;;3.20;;
57249;SDS011;43102;52.014;-0.680;2023-07-16T00:18:01;6.90;;;3.20;;
57249;SDS011;43102;52.014;-0.680;2023-07-16T00:19:00;6.90;;;3.20;;
57249;SDS011;43102;52.014;-0.680;2023-07-16T00:20:00;6.90;;;3.20;;
57249;SDS011;43102;52.014;-0.680;2023-07-16T00:21:00;6.90;;;3.20;;
57249;SDS011;43102;52.014;-0.680;2023-07-16T00:22:00;6.90;;;3.20;;
57249;SDS011;43102;52.014;-0.680;2023-07-16T00:23:00;6.90;;;3.20;;
57249;SDS011;43102;52.014;-0.680;2023-07-16T00:24:01;6.90;;;3.20;;
57249;SDS011;43102;52.014;-0.680;2023-07-16T00:25:00;6.90;;;3.20;;
57249;SDS011;43102;52.014;-0.680;2023-07-16T00:26:00;6.90;;;3.20;;
57249;SDS011;43102;52.014;-0.680;2023-07-16T00:27:00;6.90;;;3.20;;
57249;SDS011;43102;52.014;-0.680;2023-07-16T00:28:00;6.90;;;3.20;;
57249;SDS011;43102;52.014;-0.680;2023-07-16T00:29:00;6.90;;;3.20;;
57249;SDS011;43102;52.014;-0.680;2023-07-16T00:30:00;6.90;;;3.20;;
57249;SDS011;43102;52.014;-0.680;2023-07-16T00:31:01;6.20;;;3.20;;
57249;SDS011;43102;52.014;-0.680;2023-07-16T00:32:00;6.20;;;3.20;;
57249;SDS011;43102;52.014;-0.680;2023-07-16T00:33:00;6.20;;;3.20;;
57249;SDS011;43102;52.014;-0.680;2023-07-16T00:34:00;6.20;;;3.20;;
57249;SDS011;43102;52.014;-0.680;2023-07-16T00:35:01;6.20;;;3.20;;
57249;SDS011;43102;52.014;-0.680;2023-07-16T00:36:01;6.20;;;3.20;;
57249;SDS011;43102;52.014;-0.680;2023-07-16T00:37:02;6.20;;;3.20;;
57249;SDS011;43102;52.014;-0.680;2023-07-16T00:38:00;6.20;;;3.20;;
57249;SDS011;43102;52.014;-0.680;2023-07-16T00:39:00;6.20;;;3.20;;
57249;SDS011;43102;52.014;-0.680;2023-07-16T00:40:01;6.20;;;3.20;;
57249;SDS011;43102;52.014;-0.680;2023-07-16T00:41:00;6.20;;;3.20;;
57249;SDS011;43102;52.014;-0.680;2023-07-16T00:42:00;6.20;;;3.20;;
57249;SDS011;43102;52.014;-0.680;2023-07-16T00:43:00;6.20;;;3.20;;
57249;SDS011;43102;52.014;-0.680;2023-07-16T00:44:00;6.20;;;3.20;;
57249;SDS011;43102;52.014;-0.680;2023-07-16T00:45:00;6.20;;;3.20;;
57249;SDS011;43102;52.014;-0.680;2023-07-16T00:46:01;6.20;;;3.20;;
57249;SDS011;43102;52.014;-0.680;2023-07-16T00:47:01;6.20;;;3.20;;
57249;SDS011;43102;52.014;-0.680;2023-07-16T00:48:00;6.20;;;3.20;;
57249;SDS011;43102;52.014;-0.680;2023-07-16T00:49:01;6.20;;;3.20;;
57249;SDS011;43102;52.014;-0.680;2023-07-16T00:50:01;6.20;;;3.20;;
57249;SDS011;43102;52.014;-0.680;2023-07-16T00:51:01;6.20;;;3.20;;
57249;SDS011;43102;52.014;-0.680;2023-07-16T00:52:01;6.20;;;3.20;;
57249;SDS011;43102;52.014;-0.680;2023-07-16T00:53:01;6.20;;;3.20;;
57249;SDS011;43102;52.014;-0.680;2023-07-16T00:54:01;6.20;;;3.20;;
57249;SDS011;43102;52.014;-0.680;2023-07-16T00:55:01;6.20;;;3.20;;
57249;SDS011;43102;52.014;-0.680;2023-07-16T00:56:01;6.20;;;3.20;;
57249;SDS011;43102;52.014;-0.680;2023-07-16T00:57:00;6.20;;;3.20;;
57249;SDS011;43102;52.014;-0.680;2023-07-16T00:58:05;6.20;;;3.20;;
57249;SDS011;43102;52.014;-0.680;2023-07-16T00:59:00;6.20;;;3.20;;
57249;SDS011;43102;52.014;-0.680;2023-07-16T01:00:00;6.20;;;3.20;;
57249;SDS011;43102;52.014;-0.680;2023-07-16T01:01:00;6.70;;;3.40;;
57249;SDS011;43102;52.014;-0.680;2023-07-16T01:02:01;6.70;;;3.40;;
57249;SDS011;43102;52.014;-0.680;2023-07-16T01:03:02;6.70;;;3.40;;
57249;SDS011;43102;52.014;-0.680;2023-07-16T01:04:00;6.70;;;3.40;;
57249;SDS011;43102;52.014;-0.680;2023-07-16T01:05:01;6.70;;;3.40;;
57249;SDS011;43102;52.014;-0.680;2023-07-16T01:07:06;6.70;;;3.40;;
57249;SDS011;43102;52.014;-0.680;2023-07-16T01:08:04;6.70;;;3.40;;
57249;SDS011;43102;52.014;-0.680;2023-07-16T01:09:07;6.70;;;3.40;;
57249;SDS011;43102;52.014;-0.680;2023-07-16T01:10:02;6.70;;;3.40;;
57249;SDS011;43102;52.014;-0.680;2023-07-16T01:11:04;6.70;;;3.40;;
57249;SDS011;43102;52.014;-0.680;2023-07-16T01:12:01;6.70;;;3.40;;
57249;SDS011;43102;52.014;-0.680;2023-07-16T01:13:00;6.70;;;3.40;;
57249;SDS011;43102;52.014;-0.680;2023-07-16T01:14:02;6.70;;;3.40;;
57249;SDS011;43102;52.014;-0.680;2023-07-16T01:15:01;6.70;;;3.40;;
57249;SDS011;43102;52.014;-0.680;2023-07-16T01:16:01;6.70;;;3.40;;
57249;SDS011;43102;52.014;-0.680;2023-07-16T01:17:08;6.70;;;3.40;;
57249;SDS011;43102;52.014;-0.680;2023-07-16T01:18:00;6.70;;;3.40;;
57249;SDS011;43102;52.014;-0.680;2023-07-16T01:19:00;6.70;;;3.40;;
57249;SDS011;43102;52.014;-0.680;2023-07-16T01:20:00;6.70;;;3.40;;
57249;SDS011;43102;52.014;-0.680;2023-07-16T01:21:00;6.70;;;3.40;;
57249;SDS011;43102;52.014;-0.680;2023-07-16T01:23:21;6.70;;;3.40;;
57249;SDS011;43102;52.014;-0.680;2023-07-16T01:24:11;6.70;;;3.40;;
57249;SDS011;43102;52.014;-0.680;2023-07-16T01:26:05;6.70;;;3.40;;
57249;SDS011;43102;52.014;-0.680;2023-07-16T01:30:03;6.70;;;3.40;;
57249;SDS011;43102;52.014;-0.680;2023-07-16T01:31:01;7.60;;;3.60;;
57249;SDS011;43102;52.014;-0.680;2023-07-16T01:32:03;7.60;;;3.60;;
57249;SDS011;43102;52.014;-0.680;2023-07-16T01:33:02;7.60;;;3.60;;
57249;SDS011;43102;52.014;-0.680;2023-07-16T01:34:02;7.60;;;3.60;;
57249;SDS011;43102;52.014;-0.680;2023-07-16T01:35:02;7.60;;;3.60;;
57249;SDS011;43102;52.014;-0.680;2023-07-16T01:36:01;7.60;;;3.60;;
57249;SDS011;43102;52.014;-0.680;2023-07-16T01:37:02;7.60;;;3.60;;
57249;SDS011;43102;52.014;-0.680;2023-07-16T01:38:01;7.60;;;3.60;;
57249;SDS011;43102;52.014;-0.680;2023-07-16T01:39:01;7.60;;;3.60;;
57249;SDS011;43102;52.014;-0.680;2023-07-16T01:40:01;7.60;;;3.60;;
57249;SDS011;43102;52.014;-0.680;2023-07-16T01:41:00;7.60;;;3.60;;
57249;SDS011;43102;52.014;-0.680;2023-07-16T01:42:01;7.60;;;3.60;;
57249;SDS011;43102;52.014;-0.680;2023-07-16T01:43:00;7.60;;;3.60;;
57249;SDS011;43102;52.014;-0.680;2023-07-16T01:44:00;7.60;;;3.60;;
57249;SDS011;43102;52.014;-0.680;2023-07-16T01:45:00;7.60;;;3.60;;
57249;SDS011;43102;52.014;-0.680;2023-07-16T01:46:00;7.60;;;3.60;;
57249;SDS011;43102;52.014;-0.680;2023-07-16T01:47:06;7.60;;;3.60;;
57249;SDS011;43102;52.014;-0.680;2023-07-16T01:49:00;7.60;;;3.60;;
57249;SDS011;43102;52.014;-0.680;2023-07-16T01:50:01;7.60;;;3.60;;
57249;SDS011;43102;52.014;-0.680;2023-07-16T01:51:01;7.60;;;3.60;;
57249;SDS011;43102;52.014;-0.680;2023-07-16T01:52:01;7.60;;;3.60;;
57249;SDS011;43102;52.014;-0.680;2023-07-16T01:53:00;7.60;;;3.60;;
57249;SDS011;43102;52.014;-0.680;2023-07-16T01:54:00;7.60;;;3.60;;
57249;SDS011;43102;52.014;-0.680;2023-07-16T01:55:00;7.60;;;3.60;;
57249;SDS011;43102;52.014;-0.680;2023-07-16T01:56:01;7.60;;;3.60;;
57249;SDS011;43102;52.014;-0.680;2023-07-16T01:57:01;7.60;;;3.60;;
57249;SDS011;43102;52.014;-0.680;2023-07-16T01:58:00;7.60;;;3.60;;
57249;SDS011;43102;52.014;-0.680;2023-07-16T01:59:00;7.60;;;3.60;;
57249;SDS011;43102;52.014;-0.680;2023-07-16T02:00:00;7.60;;;3.60;;
57249;SDS011;43102;52.014;-0.680;2023-07-16T02:01:00;9.00;;;3.60;;
57249;SDS011;43102;52.014;-0.680;2023-07-16T02:02:00;9.00;;;3.60;;
57249;SDS011;43102;52.014;-0.680;2023-07-16T02:03:00;9.00;;;3.60;;
57249;SDS011;43102;52.014;-0.680;2023-07-16T02:04:00;9.00;;;3.60;;
57249;SDS011;43102;52.014;-0.680;2023-07-16T02:05:00;9.00;;;3.60;;
57249;SDS011;43102;52.014;-0.680;2023-07-16T02:06:00;9.00;;;3.60;;
57249;SDS011;43102;52.014;-0.680;2023-07-16T02:07:00;9.00;;;3.60;;
57249;SDS011;43102;52.014;-0.680;2023-07-16T02:08:00;9.00;;;3.60;;
57249;SDS011;43102;52.014;-0.680;2023-07-16T02:09:00;9.00;;;3.60;;
57249;SDS011;43102;52.014;-0.680;2023-07-16T02:10:01;9.00;;;3.60;;
57249;SDS011;43102;52.014;-0.680;2023-07-16T02:11:00;9.00;;;3.60;;
57249;SDS011;43102;52.014;-0.680;2023-07-16T02:12:00;9.00;;;3.60;;
57249;SDS011;43102;52.014;-0.680;2023-07-16T02:13:01;9.00;;;3.60;;
57249;SDS011;43102;52.014;-0.680;2023-07-16T02:14:00;9.00;;;3.60;;
57249;SDS011;43102;52.014;-0.680;2023-07-16T02:15:00;9.00;;;3.60;;
57249;SDS011;43102;52.014;-0.680;2023-07-16T02:16:00;9.00;;;3.60;;
57249;SDS011;43102;52.014;-0.680;2023-07-16T02:17:00;9.00;;;3.60;;
57249;SDS011;43102;52.014;-0.680;2023-07-16T02:18:00;9.00;;;3.60;;
57249;SDS011;43102;52.014;-0.680;2023-07-16T02:19:00;9.00;;;3.60;;
57249;SDS011;43102;52.014;-0.680;2023-07-16T02:20:01;9.00;;;3.60;;
57249;SDS011;43102;52.014;-0.680;2023-07-16T02:21:02;9.00;;;3.60;;
57249;SDS011;43102;52.014;-0.680;2023-07-16T02:22:00;9.00;;;3.60;;
57249;SDS011;43102;52.014;-0.680;2023-07-16T02:23:00;9.00;;;3.60;;
57249;SDS011;43102;52.014;-0.680;2023-07-16T02:24:00;9.00;;;3.60;;
57249;SDS011;43102;52.014;-0.680;2023-07-16T02:25:01;9.00;;;3.60;;
57249;SDS011;43102;52.014;-0.680;2023-07-16T02:26:01;9.00;;;3.60;;
57249;SDS011;43102;52.014;-0.680;2023-07-16T02:27:01;9.00;;;3.60;;
57249;SDS011;43102;52.014;-0.680;2023-07-16T02:28:01;9.00;;;3.60;;
57249;SDS011;43102;52.014;-0.680;2023-07-16T02:29:00;9.00;;;3.60;;
57249;SDS011;43102;52.014;-0.680;2023-07-16T02:30:01;9.00;;;3.60;;
57249;SDS011;43102;52.014;-0.680;2023-07-16T02:31:02;10.00;;;4.50;;
57249;SDS011;43102;52.014;-0.680;2023-07-16T02:32:00;10.00;;;4.50;;
57249;SDS011;43102;52.014;-0.680;2023-07-16T02:33:01;10.00;;;4.50;;
57249;SDS011;43102;52.014;-0.680;2023-07-16T02:34:00;10.00;;;4.50;;
57249;SDS011;43102;52.014;-0.680;2023-07-16T02:35:01;10.00;;;4.50;;
57249;SDS011;43102;52.014;-0.680;2023-07-16T02:36:00;10.00;;;4.50;;
57249;SDS011;43102;52.014;-0.680;2023-07-16T02:37:00;10.00;;;4.50;;
57249;SDS011;43102;52.014;-0.680;2023-07-16T02:38:00;10.00;;;4.50;;
57249;SDS011;43102;52.014;-0.680;2023-07-16T02:39:00;10.00;;;4.50;;
57249;SDS011;43102;52.014;-0.680;2023-07-16T02:40:00;10.00;;;4.50;;
57249;SDS011;43102;52.014;-0.680;2023-07-16T02:41:00;10.00;;;4.50;;
57249;SDS011;43102;52.014;-0.680;2023-07-16T02:42:00;10.00;;;4.50;;
57249;SDS011;43102;52.014;-0.680;2023-07-16T02:43:00;10.00;;;4.50;;
57249;SDS011;43102;52.014;-0.680;2023-07-16T02:44:03;10.00;;;4.50;;
57249;SDS011;43102;52.014;-0.680;2023-07-16T02:45:00;10.00;;;4.50;;
57249;SDS011;43102;52.014;-0.680;2023-07-16T02:46:00;10.00;;;4.50;;
57249;SDS011;43102;52.014;-0.680;2023-07-16T02:47:00;10.00;;;4.50;;
57249;SDS011;43102;52.014;-0.680;2023-07-16T02:48:02;10.00;;;4.50;;
57249;SDS011;43102;52.014;-0.680;2023-07-16T02:49:02;10.00;;;4.50;;
57249;SDS011;43102;52.014;-0.680;2023-07-16T02:50:00;10.00;;;4.50;;
57249;SDS011;43102;52.014;-0.680;2023-07-16T02:51:00;10.00;;;4.50;;
57249;SDS011;43102;52.014;-0.680;2023-07-16T02:52:00;10.00;;;4.50;;
57249;SDS011;43102;52.014;-0.680;2023-07-16T02:53:01;10.00;;;4.50;;
57249;SDS011;43102;52.014;-0.680;2023-07-16T02:54:00;10.00;;;4.50;;
57249;SDS011;43102;52.014;-0.680;2023-07-16T02:55:00;10.00;;;4.50;;
57249;SDS011;43102;52.014;-0.680;2023-07-16T02:56:00;10.00;;;4.50;;
57249;SDS011;43102;52.014;-0.680;2023-07-16T02:57:00;10.00;;;4.50;;
57249;SDS011;43102;52.014;-0.680;2023-07-16T02:58:04;10.00;;;4.50;;
57249;SDS011;43102;52.014;-0.680;2023-07-16T02:59:00;10.00;;;4.50;;
57249;SDS011;43102;52.014;-0.680;2023-07-16T03:00:00;10.00;;;4.50;;
57249;SDS011;43102;52.014;-0.680;2023-07-16T03:01:01;12.60;;;4.10;;
57249;SDS011;43102;52.014;-0.680;2023-07-16T03:02:00;12.60;;;4.10;;
57249;SDS011;43102;52.014;-0.680;2023-07-16T03:03:01;12.60;;;4.10;;
57249;SDS011;43102;52.014;-0.680;2023-07-16T03:04:00;12.60;;;4.10;;
57249;SDS011;43102;52.014;-0.680;2023-07-16T03:05:00;12.60;;;4.10;;
57249;SDS011;43102;52.014;-0.680;2023-07-16T03:06:00;12.60;;;4.10;;
57249;SDS011;43102;52.014;-0.680;2023-07-16T03:07:00;12.60;;;4.10;;
57249;SDS011;43102;52.014;-0.680;2023-07-16T03:08:00;12.60;;;4.10;;
57249;SDS011;43102;52.014;-0.680;2023-07-16T03:09:01;12.60;;;4.10;;
57249;SDS011;43102;52.014;-0.680;2023-07-16T03:10:00;12.60;;;4.10;;
57249;SDS011;43102;52.014;-0.680;2023-07-16T03:11:00;12.60;;;4.10;;
57249;SDS011;43102;52.014;-0.680;2023-07-16T03:12:00;12.60;;;4.10;;
57249;SDS011;43102;52.014;-0.680;2023-07-16T03:13:00;12.60;;;4.10;;
57249;SDS011;43102;52.014;-0.680;2023-07-16T03:14:00;12.60;;;4.10;;
57249;SDS011;43102;52.014;-0.680;2023-07-16T03:15:00;12.60;;;4.10;;
57249;SDS011;43102;52.014;-0.680;2023-07-16T03:16:00;12.60;;;4.10;;
57249;SDS011;43102;52.014;-0.680;2023-07-16T03:17:00;12.60;;;4.10;;
57249;SDS011;43102;52.014;-0.680;2023-07-16T03:18:00;12.60;;;4.10;;
57249;SDS011;43102;52.014;-0.680;2023-07-16T03:19:04;12.60;;;4.10;;
57249;SDS011;43102;52.014;-0.680;2023-07-16T03:20:01;12.60;;;4.10;;
57249;SDS011;43102;52.014;-0.680;2023-07-16T03:21:00;12.60;;;4.10;;
57249;SDS011;43102;52.014;-0.680;2023-07-16T03:22:01;12.60;;;4.10;;
57249;SDS011;43102;52.014;-0.680;2023-07-16T03:23:00;12.60;;;4.10;;
57249;SDS011;43102;52.014;-0.680;2023-07-16T03:24:00;12.60;;;4.10;;
57249;SDS011;43102;52.014;-0.680;2023-07-16T03:25:00;12.60;;;4.10;;
57249;SDS011;43102;52.014;-0.680;2023-07-16T03:26:00;12.60;;;4.10;;
57249;SDS011;43102;52.014;-0.680;2023-07-16T03:27:10;12.60;;;4.10;;
57249;SDS011;43102;52.014;-0.680;2023-07-16T03:28:00;12.60;;;4.10;;
57249;SDS011;43102;52.014;-0.680;2023-07-16T03:29:00;12.60;;;4.10;;
57249;SDS011;43102;52.014;-0.680;2023-07-16T03:30:01;12.60;;;4.10;;
57249;SDS011;43102;52.014;-0.680;2023-07-16T03:31:01;13.00;;;5.60;;
57249;SDS011;43102;52.014;-0.680;2023-07-16T03:32:00;13.00;;;5.60;;
57249;SDS011;43102;52.014;-0.680;2023-07-16T03:33:00;13.00;;;5.60;;
57249;SDS011;43102;52.014;-0.680;2023-07-16T03:34:00;13.00;;;5.60;;
57249;SDS011;43102;52.014;-0.680;2023-07-16T03:35:00;13.00;;;5.60;;
57249;SDS011;43102;52.014;-0.680;2023-07-16T03:36:00;13.00;;;5.60;;
57249;SDS011;43102;52.014;-0.680;2023-07-16T03:37:00;13.00;;;5.60;;
57249;SDS011;43102;52.014;-0.680;2023-07-16T03:38:00;13.00;;;5.60;;
57249;SDS011;43102;52.014;-0.680;2023-07-16T03:39:00;13.00;;;5.60;;
57249;SDS011;43102;52.014;-0.680;2023-07-16T03:40:14;13.00;;;5.60;;
57249;SDS011;43102;52.014;-0.680;2023-07-16T03:41:01;13.00;;;5.60;;
57249;SDS011;43102;52.014;-0.680;2023-07-16T03:42:00;13.00;;;5.60;;
57249;SDS011;43102;52.014;-0.680;2023-07-16T03:43:00;13.00;;;5.60;;
57249;SDS011;43102;52.014;-0.680;2023-07-16T03:44:00;13.00;;;5.60;;
57249;SDS011;43102;52.014;-0.680;2023-07-16T03:45:00;13.00;;;5.60;;
57249;SDS011;43102;52.014;-0.680;2023-07-16T03:46:00;13.00;;;5.60;;
57249;SDS011;43102;52.014;-0.680;2023-07-16T03:47:01;13.00;;;5.60;;
57249;SDS011;43102;52.014;-0.680;2023-07-16T03:48:01;13.00;;;5.60;;
57249;SDS011;43102;52.014;-0.680;2023-07-16T03:49:00;13.00;;;5.60;;
57249;SDS011;43102;52.014;-0.680;2023-07-16T03:50:00;13.00;;;5.60;;
57249;SDS011;43102;52.014;-0.680;2023-07-16T03:51:00;13.00;;;5.60;;
57249;SDS011;43102;52.014;-0.680;2023-07-16T03:52:00;13.00;;;5.60;;
57249;SDS011;43102;52.014;-0.680;2023-07-16T03:53:01;13.00;;;5.60;;
57249;SDS011;43102;52.014;-0.680;2023-07-16T03:54:00;13.00;;;5.60;;
57249;SDS011;43102;52.014;-0.680;2023-07-16T03:55:00;13.00;;;5.60;;
57249;SDS011;43102;52.014;-0.680;2023-07-16T03:56:00;13.00;;;5.60;;
57249;SDS011;43102;52.014;-0.680;2023-07-16T03:57:00;13.00;;;5.60;;
57249;SDS011;43102;52.014;-0.680;2023-07-16T03:58:00;13.00;;;5.60;;
57249;SDS011;43102;52.014;-0.680;2023-07-16T03:59:00;13.00;;;5.60;;
57249;SDS011;43102;52.014;-0.680;2023-07-16T04:00:01;13.00;;;5.60;;
57249;SDS011;43102;52.014;-0.680;2023-07-16T04:01:00;14.00;;;4.70;;
57249;SDS011;43102;52.014;-0.680;2023-07-16T04:02:01;14.00;;;4.70;;
57249;SDS011;43102;52.014;-0.680;2023-07-16T04:03:00;14.00;;;4.70;;
57249;SDS011;43102;52.014;-0.680;2023-07-16T04:04:01;14.00;;;4.70;;
57249;SDS011;43102;52.014;-0.680;2023-07-16T04:05:01;14.00;;;4.70;;
57249;SDS011;43102;52.014;-0.680;2023-07-16T04:06:05;14.00;;;4.70;;
57249;SDS011;43102;52.014;-0.680;2023-07-16T04:07:00;14.00;;;4.70;;
57249;SDS011;43102;52.014;-0.680;2023-07-16T04:08:00;14.00;;;4.70;;
57249;SDS011;43102;52.014;-0.680;2023-07-16T04:09:00;14.00;;;4.70;;
57249;SDS011;43102;52.014;-0.680;2023-07-16T04:10:00;14.00;;;4.70;;
57249;SDS011;43102;52.014;-0.680;2023-07-16T04:11:03;14.00;;;4.70;;
57249;SDS011;43102;52.014;-0.680;2023-07-16T04:12:00;14.00;;;4.70;;
57249;SDS011;43102;52.014;-0.680;2023-07-16T04:13:00;14.00;;;4.70;;
57249;SDS011;43102;52.014;-0.680;2023-07-16T04:14:00;14.00;;;4.70;;
57249;SDS011;43102;52.014;-0.680;2023-07-16T04:15:01;14.00;;;4.70;;
57249;SDS011;43102;52.014;-0.680;2023-07-16T04:16:00;14.00;;;4.70;;
57249;SDS011;43102;52.014;-0.680;2023-07-16T04:17:01;14.00;;;4.70;;
57249;SDS011;43102;52.014;-0.680;2023-07-16T04:18:02;14.00;;;4.70;;
57249;SDS011;43102;52.014;-0.680;2023-07-16T04:19:00;14.00;;;4.70;;
57249;SDS011;43102;52.014;-0.680;2023-07-16T04:20:00;14.00;;;4.70;;
57249;SDS011;43102;52.014;-0.680;2023-07-16T04:21:00;14.00;;;4.70;;
57249;SDS011;43102;52.014;-0.680;2023-07-16T04:22:01;14.00;;;4.70;;
57249;SDS011;43102;52.014;-0.680;2023-07-16T04:23:00;14.00;;;4.70;;
57249;SDS011;43102;52.014;-0.680;2023-07-16T04:24:02;14.00;;;4.70;;
57249;SDS011;43102;52.014;-0.680;2023-07-16T04:25:00;14.00;;;4.70;;
57249;SDS011;43102;52.014;-0.680;2023-07-16T04:26:00;14.00;;;4.70;;
57249;SDS011;43102;52.014;-0.680;2023-07-16T04:27:00;14.00;;;4.70;;
57249;SDS011;43102;52.014;-0.680;2023-07-16T04:28:03;14.00;;;4.70;;
57249;SDS011;43102;52.014;-0.680;2023-07-16T04:29:00;14.00;;;4.70;;
57249;SDS011;43102;52.014;-0.680;2023-07-16T04:30:00;14.00;;;4.70;;
57249;SDS011;43102;52.014;-0.680;2023-07-16T04:31:00;12.10;;;4.40;;
57249;SDS011;43102;52.014;-0.680;2023-07-16T04:32:01;12.10;;;4.40;;
57249;SDS011;43102;52.014;-0.680;2023-07-16T04:33:00;12.10;;;4.40;;
57249;SDS011;43102;52.014;-0.680;2023-07-16T04:34:00;12.10;;;4.40;;
57249;SDS011;43102;52.014;-0.680;2023-07-16T04:35:01;12.10;;;4.40;;
57249;SDS011;43102;52.014;-0.680;2023-07-16T04:36:00;12.10;;;4.40;;
57249;SDS011;43102;52.014;-0.680;2023-07-16T04:37:00;12.10;;;4.40;;
57249;SDS011;43102;52.014;-0.680;2023-07-16T04:38:01;12.10;;;4.40;;
57249;SDS011;43102;52.014;-0.680;2023-07-16T04:39:01;12.10;;;4.40;;
57249;SDS011;43102;52.014;-0.680;2023-07-16T04:40:00;12.10;;;4.40;;
57249;SDS011;43102;52.014;-0.680;2023-07-16T04:41:00;12.10;;;4.40;;
57249;SDS011;43102;52.014;-0.680;2023-07-16T04:42:00;12.10;;;4.40;;
57249;SDS011;43102;52.014;-0.680;2023-07-16T04:43:00;12.10;;;4.40;;
57249;SDS011;43102;52.014;-0.680;2023-07-16T04:44:00;12.10;;;4.40;;
57249;SDS011;43102;52.014;-0.680;2023-07-16T04:45:00;12.10;;;4.40;;
57249;SDS011;43102;52.014;-0.680;2023-07-16T04:46:00;12.10;;;4.40;;
57249;SDS011;43102;52.014;-0.680;2023-07-16T04:47:00;12.10;;;4.40;;
57249;SDS011;43102;52.014;-0.680;2023-07-16T04:48:01;12.10;;;4.40;;
57249;SDS011;43102;52.014;-0.680;2023-07-16T04:49:01;12.10;;;4.40;;
57249;SDS011;43102;52.014;-0.680;2023-07-16T04:50:00;12.10;;;4.40;;
57249;SDS011;43102;52.014;-0.680;2023-07-16T04:51:00;12.10;;;4.40;;
57249;SDS011;43102;52.014;-0.680;2023-07-16T04:52:00;12.10;;;4.40;;
57249;SDS011;43102;52.014;-0.680;2023-07-16T04:53:00;12.10;;;4.40;;
57249;SDS011;43102;52.014;-0.680;2023-07-16T04:54:00;12.10;;;4.40;;
57249;SDS011;43102;52.014;-0.680;2023-07-16T04:55:00;12.10;;;4.40;;
57249;SDS011;43102;52.014;-0.680;2023-07-16T04:56:00;12.10;;;4.40;;
57249;SDS011;43102;52.014;-0.680;2023-07-16T04:57:00;12.10;;;4.40;;
57249;SDS011;43102;52.014;-0.680;2023-07-16T04:58:00;12.10;;;4.40;;
57249;SDS011;43102;52.014;-0.680;2023-07-16T04:59:00;12.10;;;4.40;;
57249;SDS011;43102;52.014;-0.680;2023-07-16T05:00:01;12.10;;;4.40;;
57249;SDS011;43102;52.014;-0.680;2023-07-16T05:01:00;12.00;;;4.50;;
57249;SDS011;43102;52.014;-0.680;2023-07-16T05:02:04;12.00;;;4.50;;
57249;SDS011;43102;52.014;-0.680;2023-07-16T05:03:00;12.00;;;4.50;;
57249;SDS011;43102;52.014;-0.680;2023-07-16T05:04:00;12.00;;;4.50;;
57249;SDS011;43102;52.014;-0.680;2023-07-16T05:05:00;12.00;;;4.50;;
57249;SDS011;43102;52.014;-0.680;2023-07-16T05:06:01;12.00;;;4.50;;
57249;SDS011;43102;52.014;-0.680;2023-07-16T05:07:02;12.00;;;4.50;;
57249;SDS011;43102;52.014;-0.680;2023-07-16T05:08:01;12.00;;;4.50;;
57249;SDS011;43102;52.014;-0.680;2023-07-16T05:09:00;12.00;;;4.50;;
57249;SDS011;43102;52.014;-0.680;2023-07-16T05:10:01;12.00;;;4.50;;
57249;SDS011;43102;52.014;-0.680;2023-07-16T05:11:01;12.00;;;4.50;;
57249;SDS011;43102;52.014;-0.680;2023-07-16T05:12:00;12.00;;;4.50;;
57249;SDS011;43102;52.014;-0.680;2023-07-16T05:13:00;12.00;;;4.50;;
57249;SDS011;43102;52.014;-0.680;2023-07-16T05:14:00;12.00;;;4.50;;
57249;SDS011;43102;52.014;-0.680;2023-07-16T05:15:00;12.00;;;4.50;;
57249;SDS011;43102;52.014;-0.680;2023-07-16T05:16:00;12.00;;;4.50;;
57249;SDS011;43102;52.014;-0.680;2023-07-16T05:17:01;12.00;;;4.50;;
57249;SDS011;43102;52.014;-0.680;2023-07-16T05:18:01;12.00;;;4.50;;
57249;SDS011;43102;52.014;-0.680;2023-07-16T05:19:00;12.00;;;4.50;;
57249;SDS011;43102;52.014;-0.680;2023-07-16T05:20:00;12.00;;;4.50;;
57249;SDS011;43102;52.014;-0.680;2023-07-16T05:21:00;12.00;;;4.50;;
57249;SDS011;43102;52.014;-0.680;2023-07-16T05:22:00;12.00;;;4.50;;
57249;SDS011;43102;52.014;-0.680;2023-07-16T05:23:00;12.00;;;4.50;;
57249;SDS011;43102;52.014;-0.680;2023-07-16T05:24:00;12.00;;;4.50;;
57249;SDS011;43102;52.014;-0.680;2023-07-16T05:25:01;12.00;;;4.50;;
57249;SDS011;43102;52.014;-0.680;2023-07-16T05:26:00;12.00;;;4.50;;
57249;SDS011;43102;52.014;-0.680;2023-07-16T05:27:01;12.00;;;4.50;;
57249;SDS011;43102;52.014;-0.680;2023-07-16T05:28:00;12.00;;;4.50;;
57249;SDS011;43102;52.014;-0.680;2023-07-16T05:29:00;12.00;;;4.50;;
57249;SDS011;43102;52.014;-0.680;2023-07-16T05:30:00;12.00;;;4.50;;
57249;SDS011;43102;52.014;-0.680;2023-07-16T05:31:01;13.50;;;5.10;;
57249;SDS011;43102;52.014;-0.680;2023-07-16T05:32:00;13.50;;;5.10;;
57249;SDS011;43102;52.014;-0.680;2023-07-16T05:33:00;13.50;;;5.10;;
57249;SDS011;43102;52.014;-0.680;2023-07-16T05:34:00;13.50;;;5.10;;
57249;SDS011;43102;52.014;-0.680;2023-07-16T05:35:04;13.50;;;5.10;;
57249;SDS011;43102;52.014;-0.680;2023-07-16T05:36:00;13.50;;;5.10;;
57249;SDS011;43102;52.014;-0.680;2023-07-16T05:37:01;13.50;;;5.10;;
57249;SDS011;43102;52.014;-0.680;2023-07-16T05:38:00;13.50;;;5.10;;
57249;SDS011;43102;52.014;-0.680;2023-07-16T05:39:00;13.50;;;5.10;;
57249;SDS011;43102;52.014;-0.680;2023-07-16T05:40:00;13.50;;;5.10;;
57249;SDS011;43102;52.014;-0.680;2023-07-16T05:41:02;13.50;;;5.10;;
57249;SDS011;43102;52.014;-0.680;2023-07-16T05:42:02;13.50;;;5.10;;
57249;SDS011;43102;52.014;-0.680;2023-07-16T05:43:00;13.50;;;5.10;;
57249;SDS011;43102;52.014;-0.680;2023-07-16T05:44:00;13.50;;;5.10;;
57249;SDS011;43102;52.014;-0.680;2023-07-16T05:45:00;13.50;;;5.10;;
57249;SDS011;43102;52.014;-0.680;2023-07-16T05:46:00;13.50;;;5.10;;
57249;SDS011;43102;52.014;-0.680;2023-07-16T05:47:00;13.50;;;5.10;;
57249;SDS011;43102;52.014;-0.680;2023-07-16T05:48:00;13.50;;;5.10;;
57249;SDS011;43102;52.014;-0.680;2023-07-16T05:49:00;13.50;;;5.10;;
57249;SDS011;43102;52.014;-0.680;2023-07-16T05:50:01;13.50;;;5.10;;
57249;SDS011;43102;52.014;-0.680;2023-07-16T05:51:00;13.50;;;5.10;;
57249;SDS011;43102;52.014;-0.680;2023-07-16T05:52:01;13.50;;;5.10;;
57249;SDS011;43102;52.014;-0.680;2023-07-16T05:53:00;13.50;;;5.10;;
57249;SDS011;43102;52.014;-0.680;2023-07-16T05:54:00;13.50;;;5.10;;
57249;SDS011;43102;52.014;-0.680;2023-07-16T05:55:00;13.50;;;5.10;;
57249;SDS011;43102;52.014;-0.680;2023-07-16T05:56:00;13.50;;;5.10;;
57249;SDS011;43102;52.014;-0.680;2023-07-16T05:57:00;13.50;;;5.10;;
57249;SDS011;43102;52.014;-0.680;2023-07-16T05:58:00;13.50;;;5.10;;
57249;SDS011;43102;52.014;-0.680;2023-07-16T05:59:00;13.50;;;5.10;;